createdAt,value
2022-09-25T00:01:11.693Z,99775.63
2022-09-25T00:03:39.596Z,99776.84
2022-09-25T00:06:08.961Z,99774.16
2022-09-25T00:08:36.864Z,99765.72
2022-09-25T00:11:08.127Z,99769.63
2022-09-25T00:13:35.521Z,99771.69
2022-09-25T00:16:04.564Z,99773.13
2022-09-25T00:18:51.105Z,99778.00
2022-09-25T00:21:18.558Z,99778.00
2022-09-25T00:23:46.378Z,99772.66
2022-09-25T00:26:15.268Z,99786.38
2022-09-25T00:28:43.865Z,99777.72
2022-09-25T00:31:15.090Z,99782.03
2022-09-25T00:33:43.842Z,99777.44
2022-09-25T00:36:11.907Z,99776.66
2022-09-25T00:38:39.545Z,99775.16
2022-09-25T00:41:08.174Z,99775.59
2022-09-25T00:43:39.321Z,99770.75
2022-09-25T00:46:10.691Z,99766.78
2022-09-25T00:48:38.841Z,99775.91
2022-09-25T00:51:07.484Z,99770.94
2022-09-25T00:53:37.348Z,99770.34
2022-09-25T00:56:05.993Z,99771.94
2022-09-25T00:58:34.641Z,99777.06
2022-09-25T01:01:02.112Z,99771.09
2022-09-25T01:03:29.667Z,99778.50
2022-09-25T01:06:00.137Z,99780.34
2022-09-25T01:08:29.718Z,99775.22
2022-09-25T01:10:57.207Z,99777.94
2022-09-25T01:13:24.630Z,99768.72
2022-09-25T01:15:59.279Z,99771.63
2022-09-25T01:18:35.370Z,99773.91
2022-09-25T01:21:14.640Z,99769.44
2022-09-25T01:23:59.417Z,99774.00
2022-09-25T01:26:44.880Z,99769.78
2022-09-25T01:29:15.962Z,99767.56
2022-09-25T01:31:48.776Z,99767.38
2022-09-25T01:34:19.958Z,99765.78
2022-09-25T01:36:49.970Z,99775.63
2022-09-25T01:39:21.758Z,99772.28
2022-09-25T01:41:55.718Z,99775.41
2022-09-25T01:44:29.065Z,99775.63
2022-09-25T01:47:03.747Z,99769.63
2022-09-25T01:49:33.373Z,99769.78
2022-09-25T01:52:02.669Z,99770.16
2022-09-25T01:54:32.085Z,99773.50
2022-09-25T01:57:02.553Z,99776.78
2022-09-25T01:59:35.435Z,99777.41
2022-09-25T02:02:04.745Z,99784.84
2022-09-25T02:04:35.467Z,99779.44
2022-09-25T02:07:36.316Z,99780.84
2022-09-25T02:10:09.033Z,99784.47
2022-09-25T02:12:43.965Z,99771.22
2022-09-25T02:15:14.690Z,99778.13
2022-09-25T02:18:04.026Z,99774.00
2022-09-25T02:20:34.071Z,99782.94
2022-09-25T02:23:07.504Z,99782.78
2022-09-25T02:25:38.409Z,99783.88
2022-09-25T02:28:05.812Z,99778.75
2022-09-25T02:30:34.626Z,99776.25
2022-09-25T02:33:02.045Z,99778.28
2022-09-25T02:35:29.445Z,99785.94
2022-09-25T02:37:57.588Z,99782.44
2022-09-25T02:40:45.138Z,99789.03
2022-09-25T02:43:23.444Z,99784.13
2022-09-25T02:46:00.623Z,99788.41
2022-09-25T02:48:35.473Z,99786.63
2022-09-25T02:51:09.841Z,99790.31
2022-09-25T02:53:39.779Z,99784.59
2022-09-25T02:56:12.502Z,99784.00
2022-09-25T02:58:42.710Z,99783.09
2022-09-25T03:01:13.879Z,99779.41
2022-09-25T03:03:42.370Z,99770.53
2022-09-25T03:06:11.085Z,99779.97
2022-09-25T03:08:41.326Z,99769.88
2022-09-25T03:11:10.092Z,99774.78
2022-09-25T03:13:37.875Z,99770.91
2022-09-25T03:16:08.082Z,99766.38
2022-09-25T03:18:37.865Z,99773.97
2022-09-25T03:21:05.690Z,99771.31
2022-09-25T03:23:33.305Z,99771.13
2022-09-25T03:26:00.802Z,99770.91
2022-09-25T03:28:28.452Z,99776.47
2022-09-25T03:31:00.589Z,99781.22
2022-09-25T03:33:29.346Z,99779.38
2022-09-25T03:36:06.690Z,99783.16
2022-09-25T03:38:34.182Z,99779.50
2022-09-25T03:41:01.861Z,99768.63
2022-09-25T03:43:33.409Z,99773.44
2022-09-25T03:46:00.852Z,99773.25
2022-09-25T03:48:28.279Z,99770.13
2022-09-25T03:50:56.142Z,99773.66
2022-09-25T03:53:25.236Z,99766.44
2022-09-25T03:55:52.586Z,99764.81
2022-09-25T03:58:20.394Z,99766.28
2022-09-25T04:00:48.049Z,99762.78
2022-09-25T04:03:15.849Z,99760.00
2022-09-25T04:05:44.506Z,99765.53
2022-09-25T04:08:11.854Z,99759.31
2022-09-25T04:10:40.576Z,99760.44
2022-09-25T04:13:09.051Z,99759.25
2022-09-25T04:15:36.377Z,99758.28
2022-09-25T04:18:06.232Z,99756.38
2022-09-25T04:20:33.792Z,99754.44
2022-09-25T04:23:01.192Z,99752.22
2022-09-25T04:25:28.545Z,99750.59
2022-09-25T04:27:58.245Z,99750.34
2022-09-25T04:30:26.649Z,99750.59
2022-09-25T04:33:11.781Z,99749.09
2022-09-25T04:35:39.179Z,99754.84
2022-09-25T04:38:06.524Z,99756.06
2022-09-25T04:40:34.317Z,99751.28
2022-09-25T04:43:04.670Z,99755.72
2022-09-25T04:45:34.825Z,99754.94
2022-09-25T04:48:03.109Z,99760.44
2022-09-25T04:50:31.155Z,99757.59
2022-09-25T04:53:02.870Z,99755.81
2022-09-25T04:55:30.246Z,99765.88
2022-09-25T04:57:59.879Z,99766.66
2022-09-25T05:00:30.350Z,99760.72
2022-09-25T05:02:58.187Z,99760.94
2022-09-25T05:05:30.426Z,99761.44
2022-09-25T05:07:59.452Z,99760.13
2022-09-25T05:10:28.428Z,99757.66
2022-09-25T05:12:56.381Z,99771.19
2022-09-25T05:15:23.768Z,99761.78
2022-09-25T05:18:00.338Z,99765.47
2022-09-25T05:20:27.745Z,99762.72
2022-09-25T05:22:56.213Z,99761.03
2022-09-25T05:25:27.121Z,99762.13
2022-09-25T05:27:55.727Z,99758.47
2022-09-25T05:30:23.202Z,99772.03
2022-09-25T05:32:52.362Z,99775.44
2022-09-25T05:35:21.160Z,99763.19
2022-09-25T05:37:48.786Z,99760.44
2022-09-25T05:40:18.108Z,99760.56
2022-09-25T05:42:45.830Z,99758.09
2022-09-25T05:45:13.288Z,99755.72
2022-09-25T05:47:40.717Z,99763.31
2022-09-25T05:50:11.441Z,99764.84
2022-09-25T05:52:38.950Z,99754.66
2022-09-25T05:55:08.031Z,99759.44
2022-09-25T05:57:36.442Z,99751.81
2022-09-25T06:00:05.681Z,99754.34
2022-09-25T06:02:39.256Z,99755.63
2022-09-25T06:05:07.112Z,99765.91
2022-09-25T06:07:35.850Z,99756.03
2022-09-25T06:10:03.367Z,99754.50
2022-09-25T06:12:30.913Z,99750.94
2022-09-25T06:14:58.374Z,99761.72
2022-09-25T06:17:25.768Z,99758.09
2022-09-25T06:19:53.403Z,99749.28
2022-09-25T06:22:20.757Z,99760.56
2022-09-25T06:24:49.560Z,99760.72
2022-09-25T06:27:16.978Z,99754.53
2022-09-25T06:29:44.522Z,99758.56
2022-09-25T06:32:11.899Z,99766.06
2022-09-25T06:34:39.265Z,99764.09
2022-09-25T06:37:06.585Z,99759.97
2022-09-25T06:39:34.031Z,99762.63
2022-09-25T06:42:03.009Z,99760.88
2022-09-25T06:44:31.786Z,99762.47
2022-09-25T06:46:59.694Z,99766.69
2022-09-25T06:49:27.166Z,99770.94
2022-09-25T06:51:54.713Z,99772.84
2022-09-25T06:54:22.142Z,99764.69
2022-09-25T06:56:50.272Z,99770.41
2022-09-25T06:59:19.131Z,99761.78
2022-09-25T07:01:46.576Z,99772.03
2022-09-25T07:04:13.443Z,99767.03
2022-09-25T07:06:40.874Z,99767.22
2022-09-25T07:09:08.379Z,99773.41
2022-09-25T07:11:38.088Z,99774.53
2022-09-25T07:14:05.480Z,99771.25
2022-09-25T07:16:34.597Z,99765.50
2022-09-25T07:19:03.929Z,99773.50
2022-09-25T07:21:32.129Z,99771.56
2022-09-25T07:23:59.733Z,99782.13
2022-09-25T07:26:29.233Z,99773.41
2022-09-25T07:28:58.193Z,99772.25
2022-09-25T07:31:27.528Z,99770.47
2022-09-25T07:33:56.462Z,99773.19
2022-09-25T07:39:06.958Z,99775.72
2022-09-25T07:41:34.537Z,99766.88
2022-09-25T07:44:18.166Z,99775.81
2022-09-25T07:46:49.659Z,99770.81
2022-09-25T07:49:18.622Z,99776.63
2022-09-25T07:51:46.023Z,99777.25
2022-09-25T07:54:13.552Z,99771.94
2022-09-25T07:56:41.073Z,99776.28
2022-09-25T07:59:08.630Z,99775.78
2022-09-25T08:01:39.668Z,99781.34
2022-09-25T08:04:10.199Z,99784.75
2022-09-25T08:06:39.173Z,99780.78
2022-09-25T08:09:10.361Z,99782.44
2022-09-25T08:11:38.274Z,99794.59
2022-09-25T08:14:05.723Z,99796.94
2022-09-25T08:16:33.094Z,99795.91
2022-09-25T08:19:00.482Z,99798.16
2022-09-25T08:21:29.975Z,99788.53
2022-09-25T08:23:58.656Z,99790.22
2022-09-25T08:26:28.068Z,99784.78
2022-09-25T08:28:56.729Z,99791.81
2022-09-25T08:31:26.693Z,99791.22
2022-09-25T08:33:55.401Z,99791.50
2022-09-25T08:36:23.605Z,99788.97
2022-09-25T08:38:51.007Z,99794.31
2022-09-25T08:41:23.729Z,99791.38
2022-09-25T08:43:57.880Z,99795.84
2022-09-25T08:46:47.393Z,99788.53
2022-09-25T08:49:15.477Z,99783.41
2022-09-25T08:51:45.277Z,99791.81
2022-09-25T08:54:17.570Z,99787.53
2022-09-25T08:56:47.574Z,99784.41
2022-09-25T08:59:23.619Z,99782.44
2022-09-25T09:01:53.282Z,99779.78
2022-09-25T09:04:26.648Z,99787.19
2022-09-25T09:07:24.513Z,99780.53
2022-09-25T09:09:46.867Z,99781.97
2022-09-25T09:12:18.079Z,99790.63
2022-09-25T09:14:46.650Z,99798.78
2022-09-25T09:17:18.147Z,99795.97
2022-09-25T09:19:48.238Z,99789.25
2022-09-25T09:22:17.966Z,99781.00
2022-09-25T09:24:54.870Z,99782.19
2022-09-25T09:27:33.710Z,99777.69
2022-09-25T09:30:11.355Z,99781.44
2022-09-25T09:32:50.305Z,99788.09
2022-09-25T09:35:31.235Z,99779.16
2022-09-25T09:38:08.043Z,99789.91
2022-09-25T09:40:57.102Z,99782.47
2022-09-25T09:43:44.783Z,99782.69
2022-09-25T09:46:18.478Z,99771.50
2022-09-25T09:48:54.329Z,99772.47
2022-09-25T09:51:25.245Z,99764.66
2022-09-25T09:53:55.191Z,99762.97
2022-09-25T09:56:25.427Z,99764.41
2022-09-25T09:58:56.586Z,99766.00
2022-09-25T10:01:40.992Z,99765.31
2022-09-25T10:04:11.268Z,99770.69
2022-09-25T10:06:40.931Z,99773.28
2022-09-25T10:09:11.246Z,99771.69
2022-09-25T10:11:40.641Z,99765.53
2022-09-25T10:14:15.759Z,99763.44
2022-09-25T10:16:43.215Z,99765.53
2022-09-25T10:19:14.594Z,99758.38
2022-09-25T10:21:44.453Z,99749.16
2022-09-25T10:24:46.898Z,99753.81
2022-09-25T10:27:22.809Z,99753.03
2022-09-25T10:30:04.703Z,99750.97
2022-09-25T10:32:34.955Z,99751.72
2022-09-25T10:35:02.567Z,99745.94
2022-09-25T10:37:34.766Z,99750.06
2022-09-25T10:40:04.911Z,99747.47
2022-09-25T10:42:38.899Z,99745.28
2022-09-25T10:45:30.039Z,99748.09
2022-09-25T10:48:15.106Z,99748.28
2022-09-25T10:50:43.014Z,99734.22
2022-09-25T10:53:28.140Z,99730.34
2022-09-25T10:56:01.771Z,99741.09
2022-09-25T10:58:34.740Z,99740.16
2022-09-25T11:01:04.500Z,99737.19
2022-09-25T11:03:34.187Z,99747.13
2022-09-25T11:06:03.842Z,99752.50
2022-09-25T11:08:34.320Z,99754.41
2022-09-25T11:11:03.181Z,99757.81
2022-09-25T11:13:36.920Z,99758.84
2022-09-25T11:16:10.179Z,99755.03
2022-09-25T11:18:40.889Z,99757.22
2022-09-25T11:21:20.590Z,99752.00
2022-09-25T11:24:05.070Z,99752.75
2022-09-25T11:26:35.452Z,99750.25
2022-09-25T11:29:11.147Z,99746.94
2022-09-25T11:31:44.110Z,99743.97
2022-09-25T11:34:20.285Z,99737.75
2022-09-25T11:36:50.146Z,99733.66
2022-09-25T11:39:40.954Z,99733.06
2022-09-25T11:42:13.541Z,99731.06
2022-09-25T11:44:45.006Z,99726.53
2022-09-25T11:47:17.319Z,99724.28
2022-09-25T11:49:49.718Z,99720.78
2022-09-25T11:52:32.604Z,99719.25
2022-09-25T11:55:14.727Z,99732.13
2022-09-25T11:57:52.688Z,99726.78
2022-09-25T12:00:23.759Z,99718.09
2022-09-25T12:03:10.213Z,99721.38
2022-09-25T12:05:51.710Z,99710.84
2022-09-25T12:08:29.467Z,99711.00
2022-09-25T12:11:01.664Z,99716.84
2022-09-25T12:13:39.128Z,99707.19
2022-09-25T12:16:11.966Z,99696.28
2022-09-25T12:18:51.667Z,99696.09
2022-09-25T12:21:25.682Z,99689.31
2022-09-25T12:23:57.917Z,99694.34
2022-09-25T12:26:29.930Z,99699.69
2022-09-25T12:29:07.965Z,99697.63
2022-09-25T12:31:44.132Z,99692.44
2022-09-25T12:34:18.558Z,99684.81
2022-09-25T12:36:48.022Z,99686.75
2022-09-25T12:39:27.020Z,99684.00
2022-09-25T12:41:57.010Z,99677.09
2022-09-25T12:44:27.925Z,99680.75
2022-09-25T12:46:59.277Z,99678.19
2022-09-25T12:49:30.132Z,99666.53
2022-09-25T12:52:00.946Z,99666.25
2022-09-25T12:54:32.782Z,99655.69
2022-09-25T12:57:03.370Z,99664.88
2022-09-25T12:59:36.024Z,99660.41
2022-09-25T13:02:07.030Z,99663.50
2022-09-25T13:04:47.386Z,99658.84
2022-09-25T13:07:18.153Z,99663.38
2022-09-25T13:09:47.340Z,99650.41
2022-09-25T13:12:22.468Z,99659.06
2022-09-25T13:14:53.179Z,99654.34
2022-09-25T13:17:20.805Z,99649.69
2022-09-25T13:19:51.271Z,99657.88
2022-09-25T13:22:24.155Z,99658.56
2022-09-25T13:24:53.563Z,99648.59
2022-09-25T13:27:22.737Z,99656.78
2022-09-25T13:29:56.885Z,99647.88
2022-09-25T13:32:27.342Z,99644.84
2022-09-25T13:34:57.870Z,99650.53
2022-09-25T13:37:28.600Z,99644.25
2022-09-25T13:40:13.880Z,99642.69
2022-09-25T13:42:44.119Z,99639.81
2022-09-25T13:45:32.170Z,99639.66
2022-09-25T13:48:07.875Z,99632.19
2022-09-25T13:50:46.900Z,99640.28
2022-09-25T13:53:23.642Z,99641.56
2022-09-25T13:56:27.557Z,99636.09
2022-09-25T13:59:37.945Z,99632.63
2022-09-25T14:02:44.430Z,99629.94
2022-09-25T14:05:17.046Z,99627.50
2022-09-25T14:07:46.877Z,99632.22
2022-09-25T14:10:14.529Z,99644.78
2022-09-25T14:12:47.938Z,99640.09
2022-09-25T14:15:21.767Z,99644.69
2022-09-25T14:17:52.276Z,99640.09
2022-09-25T14:20:28.363Z,99643.53
2022-09-25T14:22:58.957Z,99629.84
2022-09-25T14:25:32.824Z,99633.06
2022-09-25T14:28:01.086Z,99632.31
2022-09-25T14:30:30.154Z,99628.06
2022-09-25T14:33:09.548Z,99626.75
2022-09-25T14:35:41.378Z,99618.13
2022-09-25T14:38:23.518Z,99616.31
2022-09-25T14:41:04.164Z,99615.34
2022-09-25T14:43:45.311Z,99609.13
2022-09-25T14:46:19.775Z,99605.97
2022-09-25T14:48:49.883Z,99612.13
2022-09-25T14:51:29.778Z,99606.97
2022-09-25T14:54:03.169Z,99603.34
2022-09-25T14:56:34.213Z,99605.00
2022-09-25T14:59:11.094Z,99602.09
2022-09-25T15:01:46.191Z,99600.91
2022-09-25T15:04:13.661Z,99596.88
2022-09-25T15:06:41.177Z,99587.75
2022-09-25T15:09:28.969Z,99585.19
2022-09-25T15:11:56.614Z,99591.72
2022-09-25T15:14:24.026Z,99591.25
2022-09-25T15:17:09.273Z,99594.28
2022-09-25T15:19:39.953Z,99585.31
2022-09-25T15:22:10.333Z,99588.72
2022-09-25T15:24:46.882Z,99592.00
2022-09-25T15:27:16.936Z,99592.81
2022-09-25T15:29:46.633Z,99589.44
2022-09-25T15:32:18.268Z,99582.31
2022-09-25T15:34:45.958Z,99583.59
2022-09-25T15:37:18.719Z,99583.94
2022-09-25T15:39:47.562Z,99575.50
2022-09-25T15:42:15.476Z,99568.88
2022-09-25T15:44:43.053Z,99579.75
2022-09-25T15:47:47.937Z,99566.63
2022-09-25T15:50:21.736Z,99569.19
2022-09-25T15:52:51.063Z,99571.19
2022-09-25T15:55:20.450Z,99572.13
2022-09-25T15:57:48.008Z,99574.81
2022-09-25T16:00:37.504Z,99574.09
2022-09-25T16:03:32.819Z,99574.28
2022-09-25T16:06:03.069Z,99576.91
2022-09-25T16:08:31.951Z,99579.69
2022-09-25T16:11:16.679Z,99572.69
2022-09-25T16:13:48.422Z,99569.41
2022-09-25T16:16:21.985Z,99572.00
2022-09-25T16:18:51.084Z,99578.22
2022-09-25T16:21:22.395Z,99569.94
2022-09-25T16:23:56.518Z,99583.53
2022-09-25T16:26:27.438Z,99588.09
2022-09-25T16:29:02.834Z,99580.03
2022-09-25T16:31:30.634Z,99582.69
2022-09-25T16:34:00.394Z,99585.38
2022-09-25T16:36:28.967Z,99573.03
2022-09-25T16:39:21.736Z,99568.16
2022-09-25T16:41:51.051Z,99569.03
2022-09-25T16:44:20.854Z,99576.56
2022-09-25T16:47:06.043Z,99572.44
2022-09-25T16:49:33.994Z,99569.78
2022-09-25T16:52:04.974Z,99573.69
2022-09-25T16:54:33.777Z,99584.19
2022-09-25T16:57:04.041Z,99569.81
2022-09-25T16:59:31.491Z,99576.91
2022-09-25T17:02:04.736Z,99575.88
2022-09-25T17:04:32.333Z,99578.94
2022-09-25T17:06:59.807Z,99576.41
2022-09-25T17:09:29.084Z,99574.50
2022-09-25T17:12:01.198Z,99572.94
2022-09-25T17:14:29.886Z,99583.84
2022-09-25T17:16:57.857Z,99580.00
2022-09-25T17:19:27.838Z,99584.50
2022-09-25T17:21:56.030Z,99585.09
2022-09-25T17:24:26.648Z,99585.97
2022-09-25T17:26:54.425Z,99575.72
2022-09-25T17:29:22.071Z,99582.06
2022-09-25T17:31:50.989Z,99579.72
2022-09-25T17:34:20.943Z,99583.75
2022-09-25T17:36:48.421Z,99584.75
2022-09-25T17:39:15.841Z,99583.94
2022-09-25T17:41:43.307Z,99582.88
2022-09-25T17:44:14.011Z,99587.19
2022-09-25T17:46:41.441Z,99585.94
2022-09-25T17:49:11.209Z,99584.03
2022-09-25T17:51:39.396Z,99587.88
2022-09-25T17:54:06.908Z,99582.66
2022-09-25T17:56:35.233Z,99585.69
2022-09-25T17:59:03.560Z,99589.44
2022-09-25T18:01:38.934Z,99584.72
2022-09-25T18:04:19.876Z,99582.78
2022-09-25T18:06:47.825Z,99577.56
2022-09-25T18:09:15.264Z,99575.63
2022-09-25T18:11:44.155Z,99590.22
2022-09-25T18:14:12.409Z,99583.25
2022-09-25T18:16:41.589Z,99577.47
2022-09-25T18:19:33.587Z,99579.50
2022-09-25T18:22:21.301Z,99577.66
2022-09-25T18:24:51.025Z,99580.59
2022-09-25T18:27:18.479Z,99586.28
2022-09-25T18:29:47.183Z,99580.84
2022-09-25T18:32:14.668Z,99580.13
2022-09-25T18:34:43.782Z,99582.69
2022-09-25T18:37:11.628Z,99580.69
2022-09-25T18:39:39.253Z,99583.44
2022-09-25T18:42:06.950Z,99577.28
2022-09-25T18:44:42.331Z,99579.78
2022-09-25T18:47:10.864Z,99568.81
2022-09-25T18:49:38.395Z,99560.31
2022-09-25T18:52:07.828Z,99564.72
2022-09-25T18:54:35.402Z,99569.44
2022-09-25T18:57:03.239Z,99567.84
2022-09-25T18:59:30.847Z,99564.84
2022-09-25T19:01:58.745Z,99560.00
2022-09-25T19:04:26.898Z,99556.34
2022-09-25T19:06:54.433Z,99557.44
2022-09-25T19:09:24.304Z,99555.03
2022-09-25T19:11:51.909Z,99552.28
2022-09-25T19:14:19.870Z,99553.66
2022-09-25T19:16:48.219Z,99554.84
2022-09-25T19:19:15.794Z,99562.25
2022-09-25T19:21:44.649Z,99565.06
2022-09-25T19:24:12.768Z,99568.66
2022-09-25T19:26:42.660Z,99554.78
2022-09-25T19:29:10.335Z,99556.84
2022-09-25T19:31:38.255Z,99560.13
2022-09-25T19:34:05.859Z,99557.63
2022-09-25T19:36:34.786Z,99556.91
2022-09-25T19:39:02.947Z,99559.94
2022-09-25T19:41:31.888Z,99555.25
2022-09-25T19:44:05.765Z,99554.41
2022-09-25T19:46:35.836Z,99555.41
2022-09-25T19:49:03.262Z,99553.28
2022-09-25T19:51:30.770Z,99555.53
2022-09-25T19:53:58.340Z,99549.50
2022-09-25T19:56:26.425Z,99540.53
2022-09-25T19:58:53.882Z,99543.00
2022-09-25T20:01:24.255Z,99541.53
2022-09-25T20:03:51.834Z,99532.91
2022-09-25T20:06:19.574Z,99522.44
2022-09-25T20:08:47.189Z,99528.81
2022-09-25T20:11:16.821Z,99523.84
2022-09-25T20:13:44.559Z,99513.66
2022-09-25T20:16:14.047Z,99521.38
2022-09-25T20:18:43.922Z,99518.59
2022-09-25T20:21:13.795Z,99512.25
2022-09-25T20:23:41.290Z,99509.94
2022-09-25T20:26:10.574Z,99507.44
2022-09-25T20:28:38.633Z,99513.63
2022-09-25T20:31:07.384Z,99511.06
2022-09-25T20:33:36.178Z,99504.97
2022-09-25T20:36:07.297Z,99511.59
2022-09-25T20:38:36.822Z,99512.59
2022-09-25T20:41:06.332Z,99517.88
2022-09-25T20:43:34.682Z,99506.22
2022-09-25T20:46:04.293Z,99500.56
2022-09-25T20:48:31.946Z,99507.97
2022-09-25T20:50:59.422Z,99501.06
2022-09-25T20:53:28.245Z,99502.72
2022-09-25T20:55:56.804Z,99501.16
2022-09-25T20:58:24.350Z,99498.66
2022-09-25T21:00:51.930Z,99508.91
2022-09-25T21:03:19.333Z,99508.88
2022-09-25T21:05:46.920Z,99497.94
2022-09-25T21:08:14.501Z,99489.69
2022-09-25T21:10:43.199Z,99494.44
2022-09-25T21:13:10.778Z,99493.91
2022-09-25T21:15:38.211Z,99494.91
2022-09-25T21:18:05.751Z,99493.81
2022-09-25T21:20:35.837Z,99494.63
2022-09-25T21:23:03.336Z,99494.63
2022-09-25T21:25:30.924Z,99493.16
2022-09-25T21:27:59.993Z,99492.78
2022-09-25T21:30:27.412Z,99494.03
2022-09-25T21:32:54.791Z,99497.19
2022-09-25T21:35:22.470Z,99492.69
2022-09-25T21:37:49.938Z,99490.91
2022-09-25T21:40:17.401Z,99482.31
2022-09-25T21:42:44.793Z,99476.38
2022-09-25T21:45:13.587Z,99484.91
2022-09-25T21:47:40.981Z,99482.03
2022-09-25T21:50:09.333Z,99478.72
2022-09-25T21:52:39.465Z,99478.97
2022-09-25T21:55:08.339Z,99469.34
2022-09-25T21:57:35.788Z,99471.63
2022-09-25T22:00:04.078Z,99474.28
2022-09-25T22:02:33.476Z,99468.78
2022-09-25T22:05:03.859Z,99475.06
2022-09-25T22:07:31.766Z,99471.19
2022-09-25T22:09:59.457Z,99472.78
2022-09-25T22:12:26.874Z,99472.38
2022-09-25T22:14:54.410Z,99475.34
2022-09-25T22:17:21.822Z,99474.84
2022-09-25T22:19:50.615Z,99470.47
2022-09-25T22:22:18.318Z,99472.78
2022-09-25T22:24:45.737Z,99473.97
2022-09-25T22:27:13.169Z,99472.59
2022-09-25T22:29:40.791Z,99473.81
2022-09-25T22:32:08.251Z,99461.47
2022-09-25T22:34:35.684Z,99456.66
2022-09-25T22:37:04.514Z,99452.63
2022-09-25T22:39:31.950Z,99448.03
2022-09-25T22:41:59.496Z,99446.47
2022-09-25T22:44:26.938Z,99452.59
2022-09-25T22:46:54.412Z,99445.44
2022-09-25T22:49:21.818Z,99448.00
2022-09-25T22:51:49.232Z,99445.84
2022-09-25T22:54:18.017Z,99443.72
2022-09-25T22:56:45.420Z,99442.53
2022-09-25T22:59:16.035Z,99451.22
2022-09-25T23:01:46.306Z,99433.84
2022-09-25T23:04:15.461Z,99434.88
2022-09-25T23:06:43.103Z,99434.00
2022-09-25T23:09:13.347Z,99430.53
2022-09-25T23:11:42.430Z,99433.28
2022-09-25T23:14:14.241Z,99434.78
2022-09-25T23:16:41.968Z,99420.50
2022-09-25T23:19:09.574Z,99425.81
2022-09-25T23:21:37.189Z,99421.03
2022-09-25T23:24:06.740Z,99407.41
2022-09-25T23:26:34.988Z,99407.59
2022-09-25T23:29:04.307Z,99403.63
2022-09-25T23:31:33.677Z,99403.75
2022-09-25T23:34:01.709Z,99401.44
2022-09-25T23:36:30.076Z,99394.00
2022-09-25T23:38:59.950Z,99392.84
2022-09-25T23:41:28.998Z,99392.28
2022-09-25T23:43:56.955Z,99380.00
2022-09-25T23:46:27.421Z,99375.53
2022-09-25T23:48:55.467Z,99369.69
2022-09-25T23:51:23.682Z,99367.34
2022-09-25T23:53:51.441Z,99375.09
2022-09-25T23:56:20.867Z,99365.34
2022-09-25T23:58:49.116Z,99360.34
